Time;durP1;ratioP1;P1;durP2;ratioP2;P2;SDS_P1;SDS_P2;PMS_P1;PMS_P2;Temp;Humidity;BMP_temperature;BMP_pressure;BME280_temperature;BME280_humidity;BME280_pressure;Samples;Min_cycle;Max_cycle;Signal;HPM_P1;HPM_P2
2022/07/20 00:00:54;;;;;;;;;;;20.00;48.70;;;;;;5141866;27;19923;-48
2022/07/20 00:03:20;;;;;;;;;;;20.40;52.10;;;;;;5128809;27;19927;-50
2022/07/20 00:05:46;;;;;;;;;;;21.40;51.70;;;;;;5141683;27;20331;-45
2022/07/20 00:08:12;;;;;;;;;;;21.70;50.30;;;;;;5141824;27;19935;-50
2022/07/20 00:13:22;;;;;;;;;;;20.50;50.40;;;;;;5141601;27;19937;-48
2022/07/20 00:15:48;;;;;;;;;;;20.30;49.90;;;;;;5145501;27;19923;-55
2022/07/20 00:18:13;;;;;;;;;;;20.30;49.50;;;;;;5144032;27;20346;-47
2022/07/20 00:20:39;;;;;;;;;;;20.00;49.20;;;;;;5141762;27;19923;-46
2022/07/20 00:23:05;;;;;;;;;;;19.90;49.10;;;;;;5146930;27;19923;-46
2022/07/20 00:25:31;;;;;;;;;;;20.10;51.20;;;;;;5141729;27;19934;-46
2022/07/20 00:27:57;;;;;;;;;;;21.00;52.40;;;;;;5140883;27;20370;-46
2022/07/20 00:30:22;;;;;;;;;;;21.80;51.00;;;;;;5145986;27;20385;-47
2022/07/20 00:32:48;;;;;;;;;;;21.00;51.00;;;;;;5141351;27;19973;-45
2022/07/20 00:35:14;;;;;;;;;;;20.80;50.40;;;;;;5142526;27;19976;-54
2022/07/20 00:37:40;;;;;;;;;;;20.50;49.90;;;;;;5127818;27;19970;-44
2022/07/20 00:40:06;;;;;;;;;;;20.30;49.60;;;;;;5141235;27;19922;-47
2022/07/20 00:42:35;;;;;;;;;;;20.30;49.20;;;;;;5146743;27;19927;-47
2022/07/20 00:45:02;;;;;;;;;;;19.90;49.70;;;;;;5141535;27;20353;-45
2022/07/20 00:47:28;;;;;;;;;;;20.30;52.70;;;;;;5139912;27;19974;-48
2022/07/20 00:49:53;;;;;;;;;;;21.30;52.30;;;;;;5146326;27;19927;-45
2022/07/20 00:52:19;;;;;;;;;;;21.80;50.70;;;;;;5141189;27;19943;-44
2022/07/20 00:54:45;;;;;;;;;;;20.90;51.10;;;;;;5141265;27;19927;-44
2022/07/20 00:57:11;;;;;;;;;;;20.50;50.80;;;;;;5146618;27;19933;-47
2022/07/20 00:59:37;;;;;;;;;;;20.40;50.20;;;;;;5140918;27;20025;-46
2022/07/20 01:02:03;;;;;;;;;;;20.10;49.70;;;;;;5146782;27;19927;-47
2022/07/20 01:04:28;;;;;;;;;;;20.10;49.60;;;;;;5140920;27;19926;-46
2022/07/20 01:06:54;;;;;;;;;;;19.90;49.20;;;;;;5139733;27;20062;-47
2022/07/20 01:09:20;;;;;;;;;;;20.20;51.70;;;;;;5146324;27;19931;-47
2022/07/20 01:11:46;;;;;;;;;;;21.10;52.90;;;;;;5140922;27;19975;-47
2022/07/20 01:14:12;;;;;;;;;;;21.80;51.20;;;;;;5141066;27;20318;-45
2022/07/20 01:16:38;;;;;;;;;;;20.90;51.30;;;;;;5146120;27;19942;-48
2022/07/20 01:19:04;;;;;;;;;;;20.70;50.70;;;;;;5140841;27;20382;-46
2022/07/20 01:21:29;;;;;;;;;;;20.60;49.90;;;;;;5146395;27;19930;-47
2022/07/20 01:23:55;;;;;;;;;;;20.10;49.70;;;;;;5139606;27;20286;-45
2022/07/20 01:26:21;;;;;;;;;;;20.10;49.40;;;;;;5140179;27;19985;-46
2022/07/20 01:28:47;;;;;;;;;;;20.00;49.50;;;;;;5146144;27;20442;-45
2022/07/20 01:31:13;;;;;;;;;;;19.90;49.30;;;;;;5122306;27;20014;-47
2022/07/20 01:33:39;;;;;;;;;;;20.30;52.20;;;;;;5140951;27;20198;-46
2022/07/20 01:36:04;;;;;;;;;;;21.20;52.80;;;;;;5145790;27;19931;-46
2022/07/20 01:38:30;;;;;;;;;;;21.80;51.20;;;;;;5140687;27;19927;-45
2022/07/20 01:40:56;;;;;;;;;;;21.00;51.20;;;;;;5144207;27;20275;-54
2022/07/20 01:43:22;;;;;;;;;;;20.40;51.10;;;;;;5122655;27;19972;-46
2022/07/20 01:45:48;;;;;;;;;;;20.30;50.20;;;;;;5140254;27;20248;-45
2022/07/20 01:48:13;;;;;;;;;;;20.10;50.10;;;;;;5145825;27;19931;-45
2022/07/20 01:50:39;;;;;;;;;;;19.90;50.00;;;;;;5140624;27;20290;-45
2022/07/20 01:53:05;;;;;;;;;;;20.10;49.10;;;;;;5140520;27;19931;-45
2022/07/20 01:55:31;;;;;;;;;;;20.10;50.70;;;;;;5145787;27;19929;-47
2022/07/20 01:58:00;;;;;;;;;;;20.90;53.00;;;;;;5140487;27;20344;-45
2022/07/20 02:00:25;;;;;;;;;;;21.80;51.80;;;;;;5139919;27;19927;-56
2022/07/20 02:02:51;;;;;;;;;;;21.10;51.30;;;;;;5144906;27;19927;-44
2022/07/20 02:05:17;;;;;;;;;;;20.60;51.00;;;;;;5140398;27;20029;-47
2022/07/20 02:07:43;;;;;;;;;;;20.30;50.70;;;;;;5145889;27;20323;-45
2022/07/20 02:10:09;;;;;;;;;;;20.30;50.00;;;;;;5140510;27;19931;-45
2022/07/20 02:12:35;;;;;;;;;;;20.10;49.60;;;;;;5139969;27;19934;-45
2022/07/20 02:15:01;;;;;;;;;;;19.90;49.70;;;;;;5145488;27;19927;-45
2022/07/20 02:17:27;;;;;;;;;;;20.10;48.80;;;;;;5140004;27;20009;-47
2022/07/20 02:19:52;;;;;;;;;;;20.20;52.10;;;;;;5138630;27;19927;-46
2022/07/20 02:22:18;;;;;;;;;;;21.10;52.90;;;;;;5146115;27;19937;-45
2022/07/20 02:24:44;;;;;;;;;;;21.80;51.80;;;;;;5143581;27;19991;-46
2022/07/20 02:27:10;;;;;;;;;;;21.10;51.40;;;;;;5149069;27;20374;-44
2022/07/20 02:29:35;;;;;;;;;;;20.60;50.90;;;;;;5143599;27;20301;-47
2022/07/20 02:32:01;;;;;;;;;;;20.30;50.70;;;;;;5143297;27;20286;-46
2022/07/20 02:34:27;;;;;;;;;;;20.10;50.30;;;;;;5148798;27;19922;-46
2022/07/20 02:36:53;;;;;;;;;;;20.10;49.70;;;;;;5142545;27;19923;-49
2022/07/20 02:39:18;;;;;;;;;;;20.20;51.60;;;;;;5142787;27;19923;-46
2022/07/20 02:41:44;;;;;;;;;;;20.90;53.20;;;;;;5148580;27;19923;-47
2022/07/20 02:44:10;;;;;;;;;;;21.80;51.40;;;;;;5143120;27;19923;-46
2022/07/20 02:46:37;;;;;;;;;;;21.00;51.30;;;;;;5148692;27;20392;-45
2022/07/20 02:49:02;;;;;;;;;;;20.60;51.20;;;;;;5139066;27;19927;-47
2022/07/20 02:51:28;;;;;;;;;;;20.50;50.20;;;;;;5143102;27;20441;-50
2022/07/20 02:53:54;;;;;;;;;;;20.20;50.00;;;;;;5148617;27;19946;-46
2022/07/20 02:56:20;;;;;;;;;;;20.00;49.90;;;;;;5141902;27;19930;-48
2022/07/20 02:58:45;;;;;;;;;;;20.20;48.80;;;;;;5142915;27;20166;-46
2022/07/20 03:01:11;;;;;;;;;;;20.10;51.40;;;;;;5148500;27;19929;-46
2022/07/20 03:03:37;;;;;;;;;;;20.90;53.30;;;;;;5143318;27;19931;-45
2022/07/20 03:06:03;;;;;;;;;;;21.80;52.10;;;;;;5148254;27;19927;-54
2022/07/20 03:08:29;;;;;;;;;;;21.20;51.30;;;;;;5143346;27;19931;-46
2022/07/20 03:10:54;;;;;;;;;;;20.80;50.90;;;;;;5142977;27;19926;-46
2022/07/20 03:13:20;;;;;;;;;;;20.30;50.90;;;;;;5147835;27;19930;-45
2022/07/20 03:15:46;;;;;;;;;;;20.10;50.30;;;;;;5141656;27;19953;-45
2022/07/20 03:18:12;;;;;;;;;;;20.20;49.50;;;;;;5142541;27;19999;-46
2022/07/20 03:20:38;;;;;;;;;;;19.90;49.70;;;;;;5148334;27;19966;-46
2022/07/20 03:23:03;;;;;;;;;;;20.10;52.10;;;;;;5142734;27;19930;-46
2022/07/20 03:25:29;;;;;;;;;;;21.00;53.30;;;;;;5145490;27;20386;-53
2022/07/20 03:27:55;;;;;;;;;;;21.90;51.80;;;;;;5145541;27;19923;-45
2022/07/20 03:30:21;;;;;;;;;;;20.90;51.70;;;;;;5142666;27;19926;-46
2022/07/20 03:32:47;;;;;;;;;;;20.50;51.00;;;;;;5146542;27;19934;-45
2022/07/20 03:35:12;;;;;;;;;;;20.30;50.80;;;;;;5140796;27;19930;-46
2022/07/20 03:37:38;;;;;;;;;;;20.10;50.10;;;;;;5142474;27;20011;-45
2022/07/20 03:40:05;;;;;;;;;;;20.00;49.70;;;;;;5147952;27;19962;-46
2022/07/20 03:42:31;;;;;;;;;;;19.80;49.60;;;;;;5142494;27;19925;-47
2022/07/20 03:44:57;;;;;;;;;;;20.30;52.90;;;;;;5142452;27;19975;-53
2022/07/20 03:47:22;;;;;;;;;;;21.20;53.30;;;;;;5147826;27;19924;-46
2022/07/20 03:49:50;;;;;;;;;;;21.70;51.70;;;;;;5141976;27;20478;-45
2022/07/20 03:52:16;;;;;;;;;;;20.80;51.60;;;;;;5146627;27;20294;-47
2022/07/20 03:54:42;;;;;;;;;;;20.40;51.10;;;;;;5142241;27;20022;-47
2022/07/20 03:57:08;;;;;;;;;;;20.30;50.40;;;;;;5142211;27;20339;-47
2022/07/20 03:59:34;;;;;;;;;;;20.20;49.60;;;;;;5147873;27;19938;-47
2022/07/20 04:01:59;;;;;;;;;;;19.90;49.50;;;;;;5142006;27;20449;-49
2022/07/20 04:04:25;;;;;;;;;;;20.00;49.90;;;;;;5142114;27;19930;-47
2022/07/20 04:06:51;;;;;;;;;;;20.70;53.30;;;;;;5147679;27;19923;-45
2022/07/20 04:09:43;;;;;;;;;;;21.60;52.60;;;;;;5140869;27;19931;-52
2022/07/20 04:12:03;;;;;;;;;;;21.30;51.30;;;;;;5141844;27;20328;-52
2022/07/20 04:14:29;;;;;;;;;;;20.30;51.60;;;;;;5147620;27;19927;-47
2022/07/20 04:16:55;;;;;;;;;;;20.30;50.80;;;;;;5141850;27;19925;-47
2022/07/20 04:19:21;;;;;;;;;;;20.30;49.80;;;;;;5147216;27;19938;-46
2022/07/20 04:21:46;;;;;;;;;;;20.10;49.70;;;;;;5141317;27;19927;-46
2022/07/20 04:24:12;;;;;;;;;;;19.90;49.30;;;;;;5123098;27;19930;-48
2022/07/20 04:26:38;;;;;;;;;;;20.40;53.70;;;;;;5146660;27;19927;-49
2022/07/20 04:29:04;;;;;;;;;;;21.40;53.10;;;;;;5122240;27;19930;-45
2022/07/20 04:31:30;;;;;;;;;;;21.50;51.50;;;;;;5121499;27;20303;-45
2022/07/20 04:33:55;;;;;;;;;;;20.80;51.30;;;;;;5128596;27;19930;-46
2022/07/20 04:36:21;;;;;;;;;;;20.30;51.00;;;;;;5122393;27;19932;-48
2022/07/20 04:38:47;;;;;;;;;;;20.20;50.50;;;;;;5146824;27;19969;-45
2022/07/20 04:41:13;;;;;;;;;;;19.90;50.10;;;;;;5141393;27;19976;-46
2022/07/20 04:43:39;;;;;;;;;;;20.00;49.20;;;;;;5141408;27;19934;-46
2022/07/20 04:46:04;;;;;;;;;;;20.40;53.40;;;;;;5145319;27;19927;-45
2022/07/20 04:48:30;;;;;;;;;;;21.30;53.50;;;;;;5140815;27;19923;-47
2022/07/20 04:50:56;;;;;;;;;;;21.60;51.60;;;;;;5141052;27;20180;-44
2022/07/20 04:53:22;;;;;;;;;;;20.80;51.60;;;;;;5146650;27;20490;-45
2022/07/20 04:55:47;;;;;;;;;;;20.40;51.20;;;;;;5141210;27;20342;-48
2022/07/20 04:58:13;;;;;;;;;;;20.30;50.40;;;;;;5146172;27;19923;-48
2022/07/20 05:00:39;;;;;;;;;;;19.90;50.40;;;;;;5141229;27;20820;-44
2022/07/20 05:03:05;;;;;;;;;;;19.90;50.00;;;;;;5140823;27;20313;-48
2022/07/20 05:05:31;;;;;;;;;;;20.00;51.00;;;;;;5144975;27;19946;-45
2022/07/20 05:07:56;;;;;;;;;;;20.80;54.10;;;;;;5140894;27;19976;-48
2022/07/20 05:10:22;;;;;;;;;;;21.70;52.90;;;;;;5122716;27;20191;-45
2022/07/20 05:12:48;;;;;;;;;;;21.00;52.00;;;;;;5146801;27;20011;-45
2022/07/20 05:15:14;;;;;;;;;;;20.50;51.50;;;;;;5141042;27;19981;-48
2022/07/20 05:17:39;;;;;;;;;;;20.30;50.90;;;;;;5145893;27;19969;-51
2022/07/20 05:20:05;;;;;;;;;;;20.20;50.00;;;;;;5141402;27;19927;-45
2022/07/20 05:22:31;;;;;;;;;;;19.80;50.30;;;;;;5139525;27;19931;-52
2022/07/20 05:24:57;;;;;;;;;;;20.00;49.60;;;;;;5126942;27;19931;-49
2022/07/20 05:27:23;;;;;;;;;;;20.20;53.60;;;;;;5140650;27;19937;-47
2022/07/20 05:29:49;;;;;;;;;;;21.20;53.90;;;;;;5141029;27;20439;-48
2022/07/20 05:32:14;;;;;;;;;;;21.80;52.20;;;;;;5146407;27;19927;-46
2022/07/20 05:34:40;;;;;;;;;;;21.00;51.70;;;;;;5140243;27;19929;-45
2022/07/20 05:37:06;;;;;;;;;;;20.50;51.60;;;;;;5143625;27;20413;-53
2022/07/20 05:39:32;;;;;;;;;;;20.30;50.80;;;;;;5143385;27;19923;-46
2022/07/20 05:41:58;;;;;;;;;;;20.10;50.50;;;;;;5138970;27;19923;-49
2022/07/20 05:44:23;;;;;;;;;;;20.00;50.20;;;;;;5145905;27;19934;-48
2022/07/20 05:46:49;;;;;;;;;;;20.00;49.70;;;;;;5140593;27;19923;-46
2022/07/20 05:49:15;;;;;;;;;;;20.00;51.80;;;;;;5140550;27;20014;-47
2022/07/20 05:51:41;;;;;;;;;;;21.00;53.90;;;;;;5146157;27;19927;-46
2022/07/20 05:54:07;;;;;;;;;;;21.80;52.90;;;;;;5140228;27;19937;-48
2022/07/20 05:56:32;;;;;;;;;;;21.10;52.20;;;;;;5141362;27;19924;-53
2022/07/20 05:58:58;;;;;;;;;;;20.80;51.30;;;;;;5147817;27;19923;-52
2022/07/20 06:01:24;;;;;;;;;;;20.60;50.80;;;;;;5143422;27;19950;-46
2022/07/20 06:03:50;;;;;;;;;;;20.30;50.50;;;;;;5149429;27;19923;-46
2022/07/20 06:06:15;;;;;;;;;;;20.00;50.60;;;;;;5125559;27;19949;-45
2022/07/20 06:08:41;;;;;;;;;;;20.00;49.80;;;;;;5143980;27;19923;-47
2022/07/20 06:11:08;;;;;;;;;;;19.90;49.60;;;;;;5149032;27;19923;-50
2022/07/20 06:13:34;;;;;;;;;;;20.00;49.40;;;;;;5143919;27;20479;-48
2022/07/20 06:16:00;;;;;;;;;;;19.90;50.50;;;;;;5143907;27;20042;-45
2022/07/20 06:18:26;;;;;;;;;;;20.80;53.20;;;;;;5147579;27;19944;-45
2022/07/20 06:20:51;;;;;;;;;;;21.60;53.30;;;;;;5143269;27;19927;-45
2022/07/20 06:23:17;;;;;;;;;;;21.30;52.50;;;;;;5129742;27;19995;-45
2022/07/20 06:25:43;;;;;;;;;;;20.80;51.90;;;;;;5143487;27;19927;-44
2022/07/20 06:28:09;;;;;;;;;;;20.40;51.40;;;;;;5143724;27;19935;-46
2022/07/20 06:30:34;;;;;;;;;;;20.30;50.70;;;;;;5148756;27;20382;-45
2022/07/20 06:33:00;;;;;;;;;;;20.30;50.30;;;;;;5143417;27;19930;-45
2022/07/20 06:35:26;;;;;;;;;;;20.20;49.90;;;;;;5142780;27;20036;-48
2022/07/20 06:37:53;;;;;;;;;;;20.10;49.80;;;;;;5147643;27;20093;-45
2022/07/20 06:40:19;;;;;;;;;;;19.90;49.70;;;;;;5143098;27;20369;-47
2022/07/20 06:42:45;;;;;;;;;;;20.60;53.70;;;;;;5148974;27;19972;-48
2022/07/20 06:45:11;;;;;;;;;;;21.30;54.20;;;;;;5143647;27;20411;-45
2022/07/20 06:47:37;;;;;;;;;;;21.80;52.40;;;;;;5143208;27;19927;-46
2022/07/20 06:50:04;;;;;;;;;;;20.90;52.40;;;;;;5148829;27;19923;-46
2022/07/20 06:52:32;;;;;;;;;;;20.60;51.70;;;;;;5142929;27;19923;-45
2022/07/20 06:54:58;;;;;;;;;;;20.50;50.70;;;;;;5141393;27;20378;-49
2022/07/20 06:57:24;;;;;;;;;;;20.30;50.40;;;;;;5147867;27;19998;-45
2022/07/20 06:59:50;;;;;;;;;;;20.30;50.00;;;;;;5124521;27;20128;-47
2022/07/20 07:02:16;;;;;;;;;;;20.10;49.90;;;;;;5146184;27;19930;-53
2022/07/20 07:04:42;;;;;;;;;;;20.10;49.80;;;;;;5146212;27;19923;-48
2022/07/20 07:07:08;;;;;;;;;;;20.00;49.60;;;;;;5142848;27;20018;-48
2022/07/20 07:09:34;;;;;;;;;;;20.30;53.80;;;;;;5148284;27;20294;-47
2022/07/20 07:12:00;;;;;;;;;;;21.30;54.60;;;;;;5142349;27;20382;-53
2022/07/20 07:14:25;;;;;;;;;;;21.80;53.00;;;;;;5123120;27;19934;-45
2022/07/20 07:16:52;;;;;;;;;;;21.20;52.20;;;;;;5148162;27;20370;-46
2022/07/20 07:19:18;;;;;;;;;;;20.70;51.80;;;;;;5142853;27;19942;-46
2022/07/20 07:21:44;;;;;;;;;;;20.30;51.50;;;;;;5143126;27;19927;-52
2022/07/20 07:24:09;;;;;;;;;;;20.40;50.90;;;;;;5147833;27;19927;-45
2022/07/20 07:26:35;;;;;;;;;;;20.30;50.50;;;;;;5142770;27;19927;-46
2022/07/20 07:29:01;;;;;;;;;;;20.10;50.40;;;;;;5148154;27;19930;-47
2022/07/20 07:31:27;;;;;;;;;;;20.10;50.10;;;;;;5141308;27;20446;-46
2022/07/20 07:33:52;;;;;;;;;;;20.10;50.10;;;;;;5141957;27;19923;-46
2022/07/20 07:36:18;;;;;;;;;;;20.00;50.00;;;;;;5147989;27;19926;-45
2022/07/20 07:38:44;;;;;;;;;;;20.10;49.50;;;;;;5142513;27;19923;-48
2022/07/20 07:41:10;;;;;;;;;;;19.90;49.80;;;;;;5142647;27;19931;-46
2022/07/20 07:43:36;;;;;;;;;;;20.00;49.40;;;;;;5147584;27;19958;-48
2022/07/20 07:46:01;;;;;;;;;;;20.30;53.70;;;;;;5121996;27;20429;-46
2022/07/20 07:48:27;;;;;;;;;;;21.20;54.80;;;;;;5147620;27;19931;-53
2022/07/20 07:50:53;;;;;;;;;;;22.00;54.10;;;;;;5140914;27;19967;-46
2022/07/20 07:53:19;;;;;;;;;;;21.20;53.10;;;;;;5142292;27;19995;-45
2022/07/20 07:55:45;;;;;;;;;;;21.00;52.00;;;;;;5129250;27;19923;-47
2022/07/20 07:58:11;;;;;;;;;;;20.70;51.40;;;;;;5142123;27;19931;-48
2022/07/20 08:00:37;;;;;;;;;;;20.60;51.00;;;;;;5142026;27;19923;-48
2022/07/20 08:03:03;;;;;;;;;;;20.40;50.60;;;;;;5147478;27;19977;-51
2022/07/20 08:05:29;;;;;;;;;;;20.30;50.50;;;;;;5142007;27;20362;-51
2022/07/20 08:07:54;;;;;;;;;;;20.40;49.70;;;;;;5146159;27;20311;-46
2022/07/20 08:10:20;;;;;;;;;;;20.20;50.00;;;;;;5141311;27;19923;-49
2022/07/20 08:12:46;;;;;;;;;;;20.30;49.60;;;;;;5123486;27;19945;-46
2022/07/20 08:15:12;;;;;;;;;;;20.20;49.70;;;;;;5147269;27;19930;-46
2022/07/20 08:17:38;;;;;;;;;;;20.30;49.60;;;;;;5142003;27;20306;-52
2022/07/20 08:20:06;;;;;;;;;;;20.20;49.70;;;;;;5140587;27;19923;-50
2022/07/20 08:22:35;;;;;;;;;;;20.30;49.10;;;;;;5146981;27;19927;-52
2022/07/20 08:25:00;;;;;;;;;;;20.00;50.10;;;;;;5141569;27;19927;-49
2022/07/20 08:27:26;;;;;;;;;;;20.50;53.10;;;;;;5142544;27;19927;-56
2022/07/20 08:29:58;;;;;;;;;;;21.40;54.30;;;;;;5144558;27;19931;-48
2022/07/20 08:32:24;;;;;;;;;;;21.80;53.60;;;;;;5141664;27;19923;-46
2022/07/20 08:34:51;;;;;;;;;;;21.10;52.70;;;;;;5147076;27;20043;-47
2022/07/20 08:37:16;;;;;;;;;;;20.80;51.90;;;;;;5141291;27;19933;-52
2022/07/20 08:39:42;;;;;;;;;;;20.60;51.50;;;;;;5141241;27;20294;-49
2022/07/20 08:42:08;;;;;;;;;;;20.50;50.90;;;;;;5146839;27;19931;-45
2022/07/20 08:44:34;;;;;;;;;;;20.50;50.30;;;;;;5140156;27;19971;-46
2022/07/20 08:47:00;;;;;;;;;;;20.60;50.20;;;;;;5140478;27;19927;-54
2022/07/20 08:49:26;;;;;;;;;;;20.40;49.90;;;;;;5126694;27;19924;-50
2022/07/20 08:51:52;;;;;;;;;;;20.30;50.10;;;;;;5122780;27;19954;-46
2022/07/20 08:54:17;;;;;;;;;;;20.40;49.70;;;;;;5146786;27;19923;-46
2022/07/20 08:56:43;;;;;;;;;;;20.30;50.00;;;;;;5122411;27;19923;-46
2022/07/20 08:59:09;;;;;;;;;;;20.20;50.10;;;;;;5141281;27;19931;-47
2022/07/20 09:01:35;;;;;;;;;;;20.30;49.80;;;;;;5128264;27;19934;-47
2022/07/20 09:04:11;;;;;;;;;;;20.20;50.00;;;;;;5120267;27;20288;-51
2022/07/20 09:06:46;;;;;;;;;;;20.20;50.00;;;;;;5122485;27;19923;-47
2022/07/20 09:09:13;;;;;;;;;;;20.20;49.70;;;;;;5146601;27;19937;-45
2022/07/20 09:11:39;;;;;;;;;;;20.10;50.00;;;;;;5141229;27;19927;-47
2022/07/20 09:14:05;;;;;;;;;;;20.80;53.90;;;;;;5122024;27;19938;-47
2022/07/20 09:16:46;;;;;;;;;;;21.60;54.20;;;;;;5146310;27;19923;-47
2022/07/20 09:19:13;;;;;;;;;;;21.80;53.00;;;;;;5140913;27;19927;-46
2022/07/20 09:21:40;;;;;;;;;;;21.10;52.60;;;;;;5123115;27;20081;-55
2022/07/20 09:24:06;;;;;;;;;;;20.90;51.70;;;;;;5144167;27;19923;-46
2022/07/20 09:26:32;;;;;;;;;;;20.80;51.30;;;;;;5140796;27;20429;-46
2022/07/20 09:28:58;;;;;;;;;;;20.60;51.10;;;;;;5146371;27;20037;-44
2022/07/20 09:31:27;;;;;;;;;;;20.60;50.80;;;;;;5122272;27;19923;-46
2022/07/20 09:33:53;;;;;;;;;;;20.50;50.40;;;;;;5143419;27;19933;-46
2022/07/20 09:36:20;;;;;;;;;;;20.50;50.30;;;;;;5149685;27;19923;-46
2022/07/20 09:38:45;;;;;;;;;;;20.40;50.20;;;;;;5143721;27;19927;-46
2022/07/20 09:41:28;;;;;;;;;;;20.30;50.40;;;;;;5143017;27;20330;-50
2022/07/20 09:43:54;;;;;;;;;;;20.40;49.50;;;;;;5149716;27;19923;-45
2022/07/20 09:46:20;;;;;;;;;;;20.30;49.50;;;;;;5144304;27;19935;-46
2022/07/20 09:48:50;;;;;;;;;;;20.40;49.40;;;;;;5145565;27;20335;-52
2022/07/20 09:51:19;;;;;;;;;;;20.40;49.30;;;;;;5149428;27;19934;-47
2022/07/20 09:53:45;;;;;;;;;;;20.40;49.40;;;;;;5144050;27;19927;-46
2022/07/20 09:56:11;;;;;;;;;;;20.30;49.50;;;;;;5130867;27;20015;-47
2022/07/20 09:58:37;;;;;;;;;;;20.40;49.20;;;;;;5123090;27;20378;-46
2022/07/20 10:01:03;;;;;;;;;;;20.40;49.20;;;;;;5143628;27;19923;-45
2022/07/20 10:03:29;;;;;;;;;;;20.30;49.20;;;;;;5149643;27;19923;-45
2022/07/20 10:05:55;;;;;;;;;;;20.30;49.20;;;;;;5144175;27;19930;-46
2022/07/20 10:08:20;;;;;;;;;;;20.20;49.20;;;;;;5144165;27;20637;-46
2022/07/20 10:10:46;;;;;;;;;;;20.30;49.20;;;;;;5130467;27;19923;-47
2022/07/20 10:13:12;;;;;;;;;;;20.30;49.10;;;;;;5143702;27;19934;-45
2022/07/20 10:15:41;;;;;;;;;;;20.40;48.90;;;;;;5130323;27;19927;-45
2022/07/20 10:18:07;;;;;;;;;;;20.40;49.20;;;;;;5142342;27;19923;-45
2022/07/20 10:20:34;;;;;;;;;;;20.30;49.10;;;;;;5143490;27;19927;-47
2022/07/20 10:23:14;;;;;;;;;;;20.30;48.90;;;;;;5148991;27;20330;-46
2022/07/20 10:25:44;;;;;;;;;;;20.90;52.40;;;;;;5143676;27;20620;-46
2022/07/20 10:28:28;;;;;;;;;;;21.80;52.40;;;;;;5143388;27;19949;-52
2022/07/20 10:31:20;;;;;;;;;;;21.80;51.50;;;;;;5148933;27;19933;-45
2022/07/20 10:33:46;;;;;;;;;;;21.30;51.10;;;;;;5140210;27;19971;-50
2022/07/20 10:38:58;;;;;;;;;;;20.80;50.30;;;;;;5147768;27;19923;-54
2022/07/20 10:41:33;;;;;;;;;;;20.80;50.00;;;;;;5125921;27;19950;-46
2022/07/20 10:44:17;;;;;;;;;;;20.70;49.70;;;;;;5142639;27;20092;-46
2022/07/20 10:46:43;;;;;;;;;;;20.80;49.30;;;;;;5147322;27;20394;-57
2022/07/20 10:49:09;;;;;;;;;;;20.60;49.30;;;;;;5144671;27;19945;-46
2022/07/20 10:51:34;;;;;;;;;;;20.70;49.20;;;;;;5143333;27;19923;-46
2022/07/20 10:54:19;;;;;;;;;;;20.60;49.20;;;;;;5146850;27;19939;-53
2022/07/20 10:56:45;;;;;;;;;;;20.70;48.90;;;;;;5142689;27;19967;-50
2022/07/20 10:59:12;;;;;;;;;;;20.60;49.00;;;;;;5142134;27;22337;-50
2022/07/20 11:01:37;;;;;;;;;;;20.50;49.30;;;;;;5130084;27;19923;-49
2022/07/20 11:04:03;;;;;;;;;;;20.30;49.50;;;;;;5142965;27;20009;-48
2022/07/20 11:06:29;;;;;;;;;;;20.50;49.10;;;;;;5106550;27;19931;-44
2022/07/20 11:08:55;;;;;;;;;;;20.40;49.30;;;;;;5128565;27;19924;-46
2022/07/20 11:11:22;;;;;;;;;;;20.30;49.40;;;;;;5141895;27;19931;-49
2022/07/20 11:13:48;;;;;;;;;;;20.30;49.60;;;;;;5146848;27;20530;-54
2022/07/20 11:16:16;;;;;;;;;;;20.40;48.90;;;;;;5143705;27;19947;-47
2022/07/20 11:18:42;;;;;;;;;;;20.50;49.10;;;;;;5142509;27;19923;-45
2022/07/20 11:21:08;;;;;;;;;;;20.30;49.30;;;;;;5148384;27;20049;-48
2022/07/20 11:23:39;;;;;;;;;;;20.30;49.50;;;;;;5142290;27;20058;-46
2022/07/20 11:26:05;;;;;;;;;;;20.20;49.50;;;;;;5142783;27;19927;-47
2022/07/20 11:28:34;;;;;;;;;;;20.50;49.00;;;;;;5148309;27;20030;-47
2022/07/20 11:31:01;;;;;;;;;;;20.40;48.80;;;;;;5141068;27;20071;-48
2022/07/20 11:33:28;;;;;;;;;;;20.50;49.10;;;;;;5142285;27;19934;-46
2022/07/20 11:35:54;;;;;;;;;;;20.30;49.40;;;;;;5147786;27;19927;-45
2022/07/20 11:38:20;;;;;;;;;;;20.30;49.50;;;;;;5142392;27;20296;-45
2022/07/20 11:40:56;;;;;;;;;;;20.30;49.10;;;;;;5147624;27;19974;-46
2022/07/20 11:43:22;;;;;;;;;;;20.30;49.30;;;;;;5144240;27;19929;-47
2022/07/20 11:45:48;;;;;;;;;;;20.30;49.20;;;;;;5142389;27;19931;-48
2022/07/20 11:48:14;;;;;;;;;;;20.30;49.50;;;;;;5146847;27;19927;-45
2022/07/20 11:50:40;;;;;;;;;;;20.30;49.10;;;;;;5141307;27;20396;-44
2022/07/20 11:53:20;;;;;;;;;;;20.40;49.00;;;;;;5142191;27;21301;-47
2022/07/20 11:55:46;;;;;;;;;;;20.30;49.30;;;;;;5146724;27;20029;-47
2022/07/20 11:58:12;;;;;;;;;;;20.30;49.30;;;;;;5142198;27;19927;-47
2022/07/20 12:00:37;;;;;;;;;;;20.20;50.60;;;;;;5141584;27;20493;-50
2022/07/20 12:03:03;;;;;;;;;;;21.10;52.40;;;;;;5147266;27;19930;-46
2022/07/20 12:05:29;;;;;;;;;;;21.90;52.10;;;;;;5142055;27;20410;-47
2022/07/20 12:08:10;;;;;;;;;;;21.40;51.70;;;;;;5145722;27;19927;-46
2022/07/20 12:10:36;;;;;;;;;;;21.00;51.50;;;;;;5146971;27;19986;-49
2022/07/20 12:13:06;;;;;;;;;;;20.80;51.00;;;;;;5141669;27;19923;-46
2022/07/20 12:15:32;;;;;;;;;;;20.90;50.30;;;;;;5147070;27;19958;-46
2022/07/20 12:17:58;;;;;;;;;;;20.80;50.30;;;;;;5121141;27;19987;-47
2022/07/20 12:20:24;;;;;;;;;;;20.80;49.80;;;;;;5141503;27;20030;-45
2022/07/20 12:22:56;;;;;;;;;;;20.70;49.90;;;;;;5128448;27;19923;-46
2022/07/20 12:25:33;;;;;;;;;;;20.70;49.70;;;;;;5140021;27;20025;-47
2022/07/20 12:27:59;;;;;;;;;;;20.60;49.80;;;;;;5140682;27;20012;-45
2022/07/20 12:30:26;;;;;;;;;;;20.70;49.70;;;;;;5146653;27;19938;-44
2022/07/20 12:33:02;;;;;;;;;;;20.50;49.80;;;;;;5141451;27;20301;-44
2022/07/20 12:35:28;;;;;;;;;;;20.60;49.60;;;;;;5137506;27;20377;-46
2022/07/20 12:37:54;;;;;;;;;;;20.60;49.60;;;;;;5146614;27;20033;-49
2022/07/20 12:40:29;;;;;;;;;;;20.60;49.60;;;;;;5141233;27;20494;-48
2022/07/20 12:42:55;;;;;;;;;;;20.50;49.60;;;;;;5143209;27;19943;-55
2022/07/20 12:45:20;;;;;;;;;;;20.50;49.80;;;;;;5143483;27;20366;-47
2022/07/20 12:47:46;;;;;;;;;;;20.50;49.90;;;;;;5121048;27;20287;-45
2022/07/20 12:50:12;;;;;;;;;;;20.60;49.70;;;;;;5146858;27;19949;-44
2022/07/20 12:52:38;;;;;;;;;;;20.60;49.60;;;;;;5141473;27;19923;-48
2022/07/20 12:55:04;;;;;;;;;;;20.50;50.10;;;;;;5141145;27;20359;-47
2022/07/20 12:57:29;;;;;;;;;;;20.50;49.90;;;;;;5146783;27;20384;-45
2022/07/20 12:59:55;;;;;;;;;;;20.50;50.20;;;;;;5141266;27;20328;-47
2022/07/20 13:02:21;;;;;;;;;;;20.30;50.30;;;;;;5139956;27;19923;-53
2022/07/20 13:04:47;;;;;;;;;;;20.40;50.10;;;;;;5145738;27;19927;-46
2022/07/20 13:07:13;;;;;;;;;;;20.50;50.10;;;;;;5140661;27;20312;-47
2022/07/20 13:09:38;;;;;;;;;;;20.50;50.10;;;;;;5146596;27;19923;-46
2022/07/20 13:12:04;;;;;;;;;;;20.40;50.20;;;;;;5141102;27;19993;-47
2022/07/20 13:14:30;;;;;;;;;;;20.50;50.00;;;;;;5140496;27;20370;-47
2022/07/20 13:16:56;;;;;;;;;;;20.70;49.60;;;;;;5146363;27;19933;-46
2022/07/20 13:19:22;;;;;;;;;;;20.40;50.20;;;;;;5140373;27;19927;-46
2022/07/20 13:21:48;;;;;;;;;;;20.40;50.20;;;;;;5121008;27;19962;-48
2022/07/20 13:24:14;;;;;;;;;;;20.40;50.70;;;;;;5146253;27;19923;-48
2022/07/20 13:26:40;;;;;;;;;;;20.50;50.50;;;;;;5140906;27;19923;-46
2022/07/20 13:29:06;;;;;;;;;;;20.30;50.40;;;;;;5146344;27;19923;-47
2022/07/20 13:31:33;;;;;;;;;;;20.30;50.80;;;;;;5140540;27;19923;-46
2022/07/20 13:33:59;;;;;;;;;;;20.50;50.60;;;;;;5140507;27;19930;-44
2022/07/20 13:36:25;;;;;;;;;;;20.40;50.40;;;;;;5146322;27;19923;-49
2022/07/20 13:38:52;;;;;;;;;;;20.40;50.70;;;;;;5139354;27;19933;-45
2022/07/20 13:41:18;;;;;;;;;;;20.30;51.20;;;;;;5140051;27;19923;-45
2022/07/20 13:43:44;;;;;;;;;;;20.50;50.60;;;;;;5145812;27;20364;-45
2022/07/20 13:46:11;;;;;;;;;;;20.40;50.80;;;;;;5140467;27;20017;-46
2022/07/20 13:48:38;;;;;;;;;;;20.20;51.50;;;;;;5145813;27;19923;-54
2022/07/20 13:51:03;;;;;;;;;;;20.30;51.30;;;;;;5141084;27;20310;-46
2022/07/20 13:53:29;;;;;;;;;;;20.30;51.60;;;;;;5140563;27;19927;-47
2022/07/20 13:55:55;;;;;;;;;;;20.10;51.80;;;;;;5145789;27;19923;-55
2022/07/20 13:58:22;;;;;;;;;;;20.30;52.30;;;;;;5138914;27;19992;-47
2022/07/20 14:00:47;;;;;;;;;;;20.40;52.00;;;;;;5140255;27;19929;-47
2022/07/20 14:03:13;;;;;;;;;;;20.30;51.50;;;;;;5145626;27;19981;-45
2022/07/20 14:05:39;;;;;;;;;;;20.20;52.40;;;;;;5140189;27;19983;-44
2022/07/20 14:08:05;;;;;;;;;;;20.30;52.10;;;;;;5142447;27;19927;-52
2022/07/20 14:10:31;;;;;;;;;;;20.30;52.20;;;;;;5143542;27;19934;-46
2022/07/20 14:12:57;;;;;;;;;;;20.30;52.10;;;;;;5140374;27;20419;-48
2022/07/20 14:15:22;;;;;;;;;;;20.20;52.30;;;;;;5144715;27;19923;-45
2022/07/20 14:17:48;;;;;;;;;;;20.00;52.40;;;;;;5139439;27;20351;-48